Tiempo atmosférico en la estación meteorológica de Muniesa, Teruel (800 m.)



Fecha
DESCASC
Temp. máxima en grados centígrados (hora)
DESCASC
Temp. mínima en grados centígrados (hora)
DESCASC
Temp. media en grados centígrados
DESCASC
Racha de viento máxima en m/sg (hora)
DESCASC
Velocidad máxima media en intervalos de 10 minutos(hora)
DESCASC
Precipitaciones diarias en mm
DESCASC
Precipitaciones de 00:00 a 06:00 en mm
DESCASC
Precipitaciones de 06:00 a 12:00 en mm
DESCASC
Precipitaciones de 12:00 a 18:00 en mm
DESCASC
Precipitaciones de 18:00 a 24:00 en mm
DESCASC
10-08-2019 29.5 (15:50) 18.7 (00:00) 24.1 8.33 (00:10) 5.28 (16:50) 0 0 0 0 0
24-08-2019 31.1 (16:20) 16.7 (00:00) 23.9 9.72 (18:00) 4.44 (16:10) 0 0 0 0 0
23-08-2019 29.7 (16:20) 14.3 (00:00) 22 9.17 (15:20) 5 (16:40) 0 0 0 0 0
22-08-2019 27.4 (17:00) 12 (00:00) 19.7 7.22 (15:20) 3.61 (15:20) 0 0 0 0 0
21-08-2019 24.8 (13:50) 15.5 (00:00) 20.1 8.61 (19:30) 5.83 (20:00) 0 0 0 0 0
19-08-2019 27.5 (16:10) 15.2 (00:00) 21.3 8.33 (18:00) 5 (17:00) 0 0 0 0 0
18-08-2019 35.1 (18:20) 20.4 (00:00) 27.7 11.39 (22:00) 6.94 (02:10) 0 0 0 0 0
17-08-2019 34 (16:20) 17.7 (00:00) 25.9 10.28 (16:20) 5 (17:20) 0 0 0 0 0
16-08-2019 31 (16:20) 15.9 (00:00) 23.4 7.5 (16:30) 4.44 (16:30) 0 0 0 0 0
15-08-2019 28.5 (17:10) 16.6 (00:00) 22.6 8.33 (19:30) 5 (20:00) 0 0 0 0 0
14-08-2019 30 (17:20) 13.5 (00:00) 21.8 7.78 (16:10) 5.28 (16:20) 0 0 0 0 0
13-08-2019 24.8 (18:00) 12.5 (00:00) 18.6 8.33 (18:00) 5 (18:20) 0 0 0 0 0
12-08-2019 23.8 (15:50) 13.3 (00:00) 18.5 14.17 (18:00) 8.61 (19:00) 0 0 0 0 0
11-08-2019 28.4 (17:50) 15.9 (00:00) 22.1 8.61 (22:30) 5.56 (22:40) 0 0 0 0 0
09-08-2019 35.3 (16:40) 22.2 (00:00) 28.8 12.78 (16:00) 6.94 (16:50) 0 0 0 0 0
08-08-2019 34.9 (17:50) 19.2 (00:00) 27.1 8.61 (17:50) 5.28 (20:20) 0 0 0 0 0
07-08-2019 29.8 (17:10) 18.6 (00:00) 24.2 8.89 (17:50) 5.28 (17:50) 0 0 0 0 0
06-08-2019 34.1 (16:00) 17.3 (00:00) 25.7 9.72 (14:40) 5.83 (19:20) 0 0 0 0 0
05-08-2019 33.6 (17:00) 17 (00:00) 25.3 9.17 (17:00) 5.83 (18:20) 0 0 0 0 0
04-08-2019 33.6 (17:00) 18.4 (00:00) 26 9.17 (20:00) 6.39 (20:00) 0 0 0 0 0
03-08-2019 33.6 (17:30) 16.7 (00:00) 25.1 9.72 (17:40) 5.56 (20:00) 0 0 0 0 0
02-08-2019 30.7 (17:00) 16.3 (00:00) 23.5 8.61 (16:40) 4.72 (00:20) 0 0 0 0 0
01-08-2019 30.9 (17:30) 17.1 (00:00) 24 8.33 (19:00) 5 (17:40) 0 0 0 0 0
29-07-2019 31.7 (18:20) 14 (00:00) 22.9 10 (13:10) 5.56 (13:20) 0 0 0 0 0
31-07-2019 28 (18:30) 12.5 (00:00) 20.3 9.17 (18:20) 5.28 (18:20) 0 0 0 0 0
30-07-2019 25.7 (17:20) 13.7 (00:00) 19.7 10 (00:10) 5.56 (08:40) 0 0 0 0 0
28-07-2019 26.1 (17:50) 12.3 (00:00) 19.2 11.67 (04:00) 6.94 (10:20) 0 0 0 0 0
27-07-2019 25.7 (16:20) 14.5 (00:00) 20.1 12.78 (18:40) 8.06 (18:40) 0 0 0 0 0
20-08-2019 19.5 (19:20) 13.4 (00:00) 16.4 6.67 (11:00) 4.17 (05:10) 1.4 0 1.4 0 0
26-07-2019 27.2 (16:30) 16.8 (00:00) 22 11.67 (04:10) 6.67 (03:10) 2.2 0 0.6 0.6 1

Gráficas

Temp. máximas Temp. mínimas Temp. medias Precipitaciones Rachas de viento máximas Velocidades máximas media en intervalos de 10 minutos

Datos horarios

Fecha y hora oficial Temperatura (ºC) Velocidad del viento (km/h) Dirección del viento Racha (km/h) Dirección de racha Precipitación (mm) Presión (hPa) Tendencia (hPa) Humedad (%)
2019-08-24 23:00:00 21.5 0 Calma 12 Este 0 -- -- 38
2019-08-24 22:00:00 23.9 7 Este 11 Este 0 -- -- 30
2019-08-24 21:00:00 26.1 8 Nordeste 16 Nordeste 0 -- -- 29
2019-08-24 20:00:00 28.7 10 Nordeste 19 Nordeste 0 -- -- 27
2019-08-24 19:00:00 29.7 12 Nordeste 24 Nordeste 0 -- -- 24
2019-08-24 18:00:00 30.5 13 Nordeste 35 Nordeste 0 -- -- 26
2019-08-24 17:00:00 30.6 14 Nordeste 31 Este 0 -- -- 27
2019-08-24 16:00:00 30.7 11 Nordeste 26 Nordeste 0 -- -- 28
2019-08-24 15:00:00 30.7 8 Nordeste 18 Este 0 -- -- 26
2019-08-24 14:00:00 29.9 6 Este 18 Este 0 -- -- 27
2019-08-24 13:00:00 28.5 8 Nordeste 20 Nordeste 0 -- -- 31
2019-08-24 12:00:00 27.6 9 Este 19 Este 0 -- -- 34
2019-08-24 11:00:00 25.9 10 Este 17 Este 0 -- -- 38
2019-08-24 10:00:00 23.5 4 Este 9 Este 0 -- -- 45
2019-08-24 09:00:00 20.1 2 Este 10 Sur 0 -- -- 53
2019-08-24 08:00:00 16.7 4 Sur 8 Sur 0 -- -- 61
2019-08-24 07:00:00 18.1 4 Sur 13 Sur 0 -- -- 56
2019-08-24 06:00:00 19.1 8 Sur 15 Sur 0 -- -- 54
2019-08-24 05:00:00 18.6 6 Sudoeste 12 Sudoeste 0 -- -- 56
2019-08-24 04:00:00 19.1 8 Sur 12 Sur 0 -- -- 56
2019-08-24 03:00:00 19.4 4 Sur 13 Sudeste 0 -- -- 56
2019-08-24 02:00:00 19.9 4 Sudeste 18 Sur 0 -- -- 57
2019-08-24 01:00:00 20.3 6 Sur 17 Sudeste 0 -- -- 55
2019-08-24 00:00:00 21.5 13 Sur 20 Sur -- -- -- 54
2019-08-23 23:00:00 21.8 12 Sudeste 17 Sudeste 0 -- -- 56
2019-08-23 22:00:00 22.9 8 Este 12 Nordeste 0 -- -- 39
2019-08-23 21:00:00 25.3 9 Nordeste 22 Nordeste 0 -- -- 31
2019-08-23 20:00:00 27.6 14 Nordeste 26 Nordeste 0 -- -- 30
2019-08-23 19:00:00 28.7 17 Nordeste 24 Nordeste 0 -- -- 28
2019-08-23 18:00:00 29.4 13 Nordeste 31 Nordeste 0 -- -- 27
2019-08-23 17:00:00 29.4 15 Nordeste 31 Nordeste 0 -- -- 29
2019-08-23 16:00:00 29.5 15 Nordeste 33 Nordeste 0 -- -- 31
2019-08-23 15:00:00 29.2 15 Nordeste 29 Nordeste 0 -- -- 31
2019-08-23 14:00:00 28.2 10 Nordeste 21 Este 0 -- -- 32
2019-08-23 13:00:00 27.5 8 Nordeste 21 Nordeste 0 -- -- 36
2019-08-23 12:00:00 26.4 10 Este 25 Nordeste 0 -- -- 39
2019-08-23 11:00:00 25.1 8 Este 17 Este 0 -- -- 40
2019-08-23 10:00:00 23.1 4 Sudeste 8 Este 0 -- -- 54
2019-08-23 09:00:00 19.2 2 Nordeste 6 Sudoeste 0 -- -- 64
2019-08-23 08:00:00 15 5 Sur 10 Sur 0 -- -- 76
2019-08-23 07:00:00 14.3 8 Sur 11 Sur 0 -- -- 75
2019-08-23 06:00:00 15.3 5 Sur 9 Sur 0 -- -- 72
2019-08-23 05:00:00 16.1 3 Sur 10 Sur 0 -- -- 66
2019-08-23 04:00:00 16.6 5 Sur 11 Sur 0 -- -- 61
2019-08-23 03:00:00 17.3 7 Sur 15 Sur 0 -- -- 55
2019-08-23 02:00:00 17.7 9 Sur 14 Sur 0 -- -- 51
2019-08-23 01:00:00 17.8 9 Sur 14 Sur 0 -- -- 50
2019-08-23 00:00:00 18.3 12 Sur 15 Sur 0 -- -- 49
2019-08-22 23:00:00 18.8 5 Sur 7 Sur 0 -- -- 47
2019-08-22 22:00:00 20.7 2 Sudeste 9 Nordeste 0 -- -- 43
2019-08-22 21:00:00 22.9 7 Nordeste 14 Norte 0 -- -- 38
2019-08-22 20:00:00 25.6 8 Norte 20 Norte 0 -- -- 37
2019-08-22 19:00:00 26.8 7 Noroeste 21 Norte 0 -- -- 37
2019-08-22 18:00:00 27 10 Norte 21 Norte 0 -- -- 38
2019-08-22 17:00:00 27.4 11 Noroeste 19 Noroeste 0 -- -- 38
2019-08-22 16:00:00 26.9 11 Norte 26 Norte 0 -- -- 40
2019-08-22 15:00:00 26.5 10 Norte 20 Noroeste 0 -- -- 42
2019-08-22 14:00:00 25 10 Nordeste 19 Nordeste 0 -- -- 45
2019-08-22 13:00:00 23.5 6 Norte 17 Oeste 0 -- -- 48
2019-08-22 12:00:00 21.8 6 Norte 15 Norte 0 -- -- 50
2019-08-22 11:00:00 20.3 5 Noroeste 14 Oeste 0 -- -- 54
2019-08-22 10:00:00 18.2 8 Noroeste 13 Noroeste 0 -- -- 60
2019-08-22 09:00:00 15.2 2 Sudoeste 8 Sur 0 -- -- 76
2019-08-22 08:00:00 12.4 5 Sur 7 Sur 0 -- -- 88
2019-08-22 07:00:00 12.1 4 Sur 6 Sur 0 -- -- 88
2019-08-22 06:00:00 12.5 5 Sur 10 Sur 0 -- -- 88
2019-08-22 05:00:00 14.1 3 Noroeste 8 Noroeste 0 -- -- 82
2019-08-22 04:00:00 15.2 3 Oeste 10 Oeste 0 -- -- 80
2019-08-22 03:00:00 15.4 4 Oeste 11 Noroeste 0 -- -- 81
2019-08-22 02:00:00 16.4 4 Noroeste 10 Noroeste 0 -- -- 80
2019-08-22 01:00:00 16.6 3 Noroeste 5 Noroeste 0 -- -- 81
2019-08-22 00:00:00 17.9 0 Calma 8 Oeste 0 -- -- 79
2019-08-21 23:00:00 18.4 4 Oeste 10 Oeste 0 -- -- 79
2019-08-21 22:00:00 19 5 Noroeste 10 Sudoeste 0 -- -- 68
2019-08-21 21:00:00 19.8 4 Oeste 23 Sudeste 0 -- -- 62
2019-08-21 20:00:00 20.1 21 Sur 31 Sur 0 -- -- 60
2019-08-21 19:00:00 21.5 7 Sudoeste 12 Sur 0 -- -- 65
2019-08-21 18:00:00 21.2 6 Sudeste 19 Este 0 -- -- 66
2019-08-21 17:00:00 21.7 8 Este 12 Este 0 -- -- 64
2019-08-21 16:00:00 22.1 7 Nordeste 21 Nordeste 0 -- -- 62
2019-08-21 15:00:00 22.6 12 Norte 23 Noroeste 0 -- -- 60
2019-08-21 14:00:00 24.8 13 Norte 23 Noroeste 0 -- -- 55
2019-08-21 13:00:00 23.1 8 Nordeste 18 Nordeste 0 -- -- 58
2019-08-21 12:00:00 22 8 Nordeste 17 Nordeste 0 -- -- 60
2019-08-21 11:00:00 20.9 8 Este 13 Este 0 -- -- 63
2019-08-21 10:00:00 18.4 3 Sur 6 Sudoeste 0 -- -- 64
2019-08-21 09:00:00 16.2 2 Sudoeste 5 Sudoeste 0 -- -- 73
2019-08-21 08:00:00 15.6 3 Noroeste 5 Noroeste 0 -- -- 77
2019-08-21 07:00:00 15.5 2 Norte 6 Noroeste 0 -- -- 77
2019-08-21 06:00:00 15.6 3 Noroeste 10 Noroeste 0 -- -- 77
2019-08-21 05:00:00 15.6 5 Oeste 11 Oeste 0 -- -- 77
2019-08-21 04:00:00 15.8 5 Oeste 13 Noroeste 0 -- -- 76
2019-08-21 03:00:00 16.3 8 Noroeste 12 Noroeste 0 -- -- 74
2019-08-21 02:00:00 16.6 5 Noroeste 9 Noroeste 0 -- -- 74
2019-08-21 01:00:00 16.8 6 Noroeste 12 Noroeste 0 -- -- 74
2019-08-21 00:00:00 17.7 8 Noroeste 13 Norte 0 -- -- 76
2019-08-20 23:00:00 18.4 4 Sudeste 10 Sudeste 0 -- -- 79
2019-08-20 22:00:00 18.7 6 Sudeste 9 Sudeste 0 -- -- 78
2019-08-20 21:00:00 18.9 5 Nordeste 10 Norte 0 -- -- 77
2019-08-20 20:00:00 19.3 4 Nordeste 10 Norte 0 -- -- 74
2019-08-20 19:00:00 19.2 3 Norte 12 Norte 0 -- -- 74
2019-08-20 18:00:00 19.3 8 Norte 15 Norte 0 -- -- 74
2019-08-20 17:00:00 19.3 4 Norte 10 Norte 0 -- -- 73
2019-08-20 16:00:00 18.7 5 Noroeste 14 Noroeste 0 -- -- 77
2019-08-20 15:00:00 16.2 8 Noroeste 17 Noroeste 0 -- -- 87
2019-08-20 14:00:00 15.4 12 Noroeste 18 Noroeste 0 -- -- 91
2019-08-20 13:00:00 14 9 Noroeste 20 Noroeste 0 -- -- 96
2019-08-20 12:00:00 13.6 10 Noroeste 21 Noroeste 0.2 -- -- 96
2019-08-20 11:00:00 13.7 15 Noroeste 24 Noroeste 1 -- -- 96
2019-08-20 10:00:00 13.8 7 Noroeste 19 Noroeste 0.2 -- -- 97
2019-08-20 09:00:00 13.9 10 Noroeste 20 Noroeste 0 -- -- 96
2019-08-20 08:00:00 14.5 4 Noroeste 8 Noroeste 0 -- -- 94
2019-08-20 07:00:00 14.2 2 Noroeste 17 Noroeste 0 -- -- 95
2019-08-20 06:00:00 14 10 Noroeste 23 Noroeste 0 -- -- 92
2019-08-20 05:00:00 14.8 13 Noroeste 21 Noroeste 0 -- -- 87
2019-08-20 04:00:00 15.7 13 Noroeste 19 Noroeste 0 -- -- 81
2019-08-20 03:00:00 16.5 14 Noroeste 21 Noroeste 0 -- -- 76
2019-08-20 02:00:00 17.3 10 Noroeste 15 Noroeste 0 -- -- 72
2019-08-20 01:00:00 17.8 9 Noroeste 17 Noroeste 0 -- -- 68
2019-08-20 00:00:00 18.1 10 Noroeste 18 Noroeste 0 -- -- 66
2019-08-19 23:00:00 19 13 Noroeste 22 Noroeste 0 -- -- 62
2019-08-19 22:00:00 20.5 12 Noroeste 22 Noroeste 0 -- -- 55
2019-08-19 21:00:00 22.2 12 Norte 21 Noroeste 0 -- -- 51
2019-08-19 20:00:00 24.2 9 Nordeste 22 Norte 0 -- -- 51
2019-08-19 19:00:00 24.6 14 Norte 26 Nordeste 0 -- -- 48
2019-08-19 18:00:00 25.7 17 Norte 30 Norte 0 -- -- 44
2019-08-19 17:00:00 27 18 Nordeste 28 Nordeste 0 -- -- 44
2019-08-19 16:00:00 27.1 12 Nordeste 27 Norte 0 -- -- 44
2019-08-19 15:00:00 26 14 Norte 28 Norte 0 -- -- 44
2019-08-19 14:00:00 25.5 9 Norte 21 Nordeste 0 -- -- 46
2019-08-19 13:00:00 24.1 11 Norte 21 Noroeste 0 -- -- 49
2019-08-19 12:00:00 21.8 6 Noroeste 22 Norte 0 -- -- 55
2019-08-19 11:00:00 20.4 8 Norte 22 Noroeste 0 -- -- 59
2019-08-19 10:00:00 18.4 10 Noroeste 21 Oeste 0 -- -- 65
2019-08-19 09:00:00 16.2 10 Noroeste 19 Oeste 0 -- -- 74
2019-08-19 08:00:00 15.2 10 Oeste 17 Oeste 0 -- -- 78
2019-08-19 07:00:00 15.3 8 Oeste 14 Oeste 0 -- -- 79
2019-08-19 06:00:00 15.3 9 Oeste 19 Oeste 0 -- -- 80
2019-08-19 05:00:00 15.7 10 Noroeste 25 Noroeste 0 -- -- 79
2019-08-19 04:00:00 16.5 11 Noroeste 25 Noroeste 0 -- -- 78
2019-08-19 03:00:00 17.1 13 Noroeste 29 Noroeste 0 -- -- 78
2019-08-19 02:00:00 18.1 15 Noroeste 28 Noroeste 0 -- -- 75
2019-08-19 01:00:00 19.3 15 Noroeste 30 Oeste 0 -- -- 71
2019-08-19 00:00:00 20.4 14 Noroeste 32 Noroeste 0 -- -- 67
2019-08-18 23:00:00 22 20 Noroeste 40 Noroeste 0 -- -- 64
2019-08-18 22:00:00 26.7 23 Noroeste 41 Noroeste 0 -- -- 49
2019-08-18 21:00:00 31.7 12 Oeste 31 Oeste 0 -- -- 19
2019-08-18 20:00:00 34.1 17 Oeste 31 Oeste 0 -- -- 18
2019-08-18 19:00:00 33.9 14 Este 32 Este 0 -- -- 34
2019-08-18 18:00:00 34.8 16 Este 28 Este 0 -- -- 29
2019-08-18 17:00:00 33.9 13 Este 26 Este 0 -- -- 30
2019-08-18 16:00:00 33.7 17 Este 31 Este 0 -- -- 32
2019-08-18 15:00:00 33.2 14 Este 40 Este 0 -- -- 34
2019-08-18 14:00:00 32.9 13 Este 28 Norte 0 -- -- 32
2019-08-18 13:00:00 32.3 15 Norte 29 Norte 0 -- -- 31
2019-08-18 12:00:00 30.8 8 Norte 16 Norte 0 -- -- 38
2019-08-18 11:00:00 27.3 12 Norte 18 Norte 0 -- -- 54
2019-08-18 10:00:00 28.5 5 Norte 9 Oeste 0 -- -- 37
2019-08-18 09:00:00 25.9 4 Nordeste 21 Sur 0 -- -- 43
2019-08-18 08:00:00 23.8 18 Sur 24 Sudoeste 0 -- -- 48
2019-08-18 07:00:00 24.2 14 Sudoeste 23 Sudoeste 0 -- -- 49
2019-08-18 06:00:00 24.6 15 Sur 28 Sur 0 -- -- 49
2019-08-18 05:00:00 25.3 20 Sur 30 Sur 0 -- -- 49
2019-08-18 04:00:00 25.9 22 Sur 37 Sudoeste 0 -- -- 49
2019-08-18 03:00:00 26.2 20 Sur 39 Sudoeste 0 -- -- 49
2019-08-18 02:00:00 26.6 23 Sur 35 Sur 0 -- -- 47
2019-08-18 01:00:00 26.6 15 Sur 28 Sur 0 -- -- 47
2019-08-18 00:00:00 25.6 4 Oeste 13 Noroeste 0 -- -- 58
2019-08-17 23:00:00 26.7 6 Sudeste 15 Sudeste 0 -- -- 61
2019-08-17 22:00:00 28.3 11 Sudeste 25 Sudeste 0 -- -- 55
2019-08-17 21:00:00 30.2 15 Este 27 Este 0 -- -- 49
2019-08-17 20:00:00 32 16 Este 29 Este 0 -- -- 33
2019-08-17 19:00:00 32.9 18 Este 30 Nordeste 0 -- -- 34
2019-08-17 18:00:00 33.4 15 Este 28 Nordeste 0 -- -- 33
2019-08-17 17:00:00 33.3 15 Nordeste 37 Nordeste 0 -- -- 35
2019-08-17 16:00:00 33.5 6 Norte 21 Norte 0 -- -- 33
2019-08-17 15:00:00 32.3 14 Norte 24 Norte 0 -- -- 37
2019-08-17 14:00:00 31.6 10 Nordeste 21 Norte 0 -- -- 41
2019-08-17 13:00:00 30.1 10 Norte 19 Norte 0 -- -- 42
2019-08-17 12:00:00 28.9 9 Noroeste 14 Noroeste 0 -- -- 46
2019-08-17 11:00:00 26.7 8 Norte 17 Norte 0 -- -- 54
2019-08-17 10:00:00 23.9 3 Noroeste 7 Noroeste 0 -- -- 61
2019-08-17 09:00:00 20.7 3 Oeste 6 Noroeste 0 -- -- 67
2019-08-17 08:00:00 18 0 Calma 5 Oeste 0 -- -- 76
2019-08-17 07:00:00 18.3 3 Noroeste 5 Noroeste 0 -- -- 73
2019-08-17 06:00:00 19.2 2 Noroeste 5 Sur 0 -- -- 70
2019-08-17 05:00:00 21.5 6 Sur 13 Sur 0 -- -- 65
2019-08-17 04:00:00 22.6 6 Sur 15 Sudoeste 0 -- -- 63
2019-08-17 03:00:00 24 8 Sur 16 Sur 0 -- -- 59
2019-08-17 02:00:00 21.8 10 Sur 13 Sur 0 -- -- 60
2019-08-17 01:00:00 22.3 3 Sur 6 Sur 0 -- -- 55
2019-08-17 00:00:00 23 2 Sudoeste 8 Este 0 -- -- 50
2019-08-16 23:00:00 23.9 2 Sur 5 Sudeste 0 -- -- 47
2019-08-16 22:00:00 25.5 3 Este 11 Nordeste 0 -- -- 44
2019-08-16 21:00:00 27.8 8 Este 17 Este 0 -- -- 40
2019-08-16 20:00:00 29.4 11 Este 21 Este 0 -- -- 36
2019-08-16 19:00:00 30.2 12 Este 21 Nordeste 0 -- -- 34
2019-08-16 18:00:00 30.3 13 Nordeste 25 Este 0 -- -- 35
2019-08-16 17:00:00 30.7 14 Este 27 Nordeste 0 -- -- 34
2019-08-16 16:00:00 30.6 14 Nordeste 26 Nordeste 0 -- -- 34
2019-08-16 15:00:00 29.6 8 Este 21 Este 0 -- -- 36
2019-08-16 14:00:00 28.1 8 Este 21 Este 0 -- -- 39
2019-08-16 13:00:00 26.8 10 Este 22 Este 0 -- -- 39
2019-08-16 12:00:00 25 8 Nordeste 16 Nordeste 0 -- -- 39
2019-08-16 11:00:00 23.5 6 Este 13 Este 0 -- -- 44
2019-08-16 10:00:00 21.6 5 Este 9 Este 0 -- -- 49
2019-08-16 09:00:00 18.5 0 Calma 4 Este 0 -- -- 59
2019-08-16 08:00:00 16.4 0 Calma 7 Sur 0 -- -- 63
2019-08-16 07:00:00 16 3 Sudoeste 8 Sur 0 -- -- 62
2019-08-16 06:00:00 16 3 Sur 9 Sudeste 0 -- -- 62
2019-08-16 05:00:00 16.8 4 Sur 11 Sur 0 -- -- 60
2019-08-16 04:00:00 17.4 6 Sur 8 Sur 0 -- -- 58
2019-08-16 03:00:00 17.5 5 Sur 6 Sur 0 -- -- 58
2019-08-16 02:00:00 17.5 4 Sur 6 Sudoeste 0 -- -- 61
2019-08-16 01:00:00 18.7 3 Oeste 11 Oeste 0 -- -- 58
2019-08-16 00:00:00 19.5 7 Oeste 13 Oeste 0 -- -- 55
2019-08-15 23:00:00 20.3 7 Noroeste 20 Noroeste 0 -- -- 52
2019-08-15 22:00:00 21.5 12 Noroeste 24 Noroeste 0 -- -- 48
2019-08-15 21:00:00 23.6 14 Norte 26 Norte 0 -- -- 45
2019-08-15 20:00:00 25.6 18 Norte 30 Norte 0 -- -- 41
2019-08-15 19:00:00 27.6 13 Norte 25 Norte 0 -- -- 38
2019-08-15 18:00:00 28.2 11 Norte 26 Noroeste 0 -- -- 42
2019-08-15 17:00:00 28 12 Norte 25 Norte 0 -- -- 43
2019-08-15 16:00:00 27.9 15 Norte 28 Oeste 0 -- -- 44
2019-08-15 15:00:00 27 14 Norte 28 Norte 0 -- -- 45
2019-08-15 14:00:00 26.5 12 Norte 22 Nordeste 0 -- -- 47
2019-08-15 13:00:00 24.9 9 Norte 21 Norte 0 -- -- 52
2019-08-15 12:00:00 23.6 9 Noroeste 20 Noroeste 0 -- -- 55
2019-08-15 11:00:00 22 10 Noroeste 23 Noroeste 0 -- -- 61
2019-08-15 10:00:00 20.3 13 Noroeste 25 Noroeste 0 -- -- 69
2019-08-15 09:00:00 18.8 16 Noroeste 28 Oeste 0 -- -- 75
2019-08-15 08:00:00 17.1 8 Oeste 15 Oeste 0 -- -- 80
2019-08-15 07:00:00 16.7 6 Oeste 13 Oeste 0 -- -- 79
2019-08-15 06:00:00 17.1 8 Oeste 14 Oeste 0 -- -- 78
2019-08-15 05:00:00 17.4 6 Oeste 15 Noroeste 0 -- -- 75
2019-08-15 04:00:00 17.9 6 Noroeste 13 Oeste 0 -- -- 70
2019-08-15 03:00:00 18.8 5 Oeste 9 Oeste 0 -- -- 62
2019-08-15 02:00:00 19.7 5 Oeste 13 Oeste 0 -- -- 56
2019-08-15 01:00:00 20.6 8 Oeste 15 Oeste 0 -- -- 53
2019-08-15 00:00:00 21 3 Sudoeste 13 Noroeste 0 -- -- 42
2019-08-14 23:00:00 21.7 3 Sudoeste 5 Sudoeste 0 -- -- 38
2019-08-14 22:00:00 23.2 2 Este 8 Norte 0 -- -- 35
2019-08-14 21:00:00 26.2 8 Nordeste 18 Norte 0 -- -- 30
2019-08-14 20:00:00 28.7 7 Norte 18 Norte 0 -- -- 26
2019-08-14 19:00:00 30 6 Norte 17 Noroeste 0 -- -- 24
2019-08-14 18:00:00 29.9 10 Noroeste 21 Norte 0 -- -- 24
2019-08-14 17:00:00 29.6 11 Noroeste 28 Norte 0 -- -- 24
2019-08-14 16:00:00 29.2 17 Norte 27 Norte 0 -- -- 24
2019-08-14 15:00:00 28.2 6 Este 25 Norte 0 -- -- 26
2019-08-14 14:00:00 27.7 11 Noroeste 23 Oeste 0 -- -- 26
2019-08-14 13:00:00 26 9 Norte 18 Norte 0 -- -- 30
2019-08-14 12:00:00 24.9 9 Norte 19 Nordeste 0 -- -- 31
2019-08-14 11:00:00 23.8 6 Nordeste 13 Nordeste 0 -- -- 33
2019-08-14 10:00:00 22.4 3 Sudeste 10 Sudoeste 0 -- -- 40
2019-08-14 09:00:00 19.8 7 Sur 16 Sur 0 -- -- 49
2019-08-14 08:00:00 14.9 11 Sur 14 Sur 0 -- -- 59
2019-08-14 07:00:00 13.9 11 Sur 14 Sur 0 -- -- 57
2019-08-14 06:00:00 13.9 9 Sur 13 Sur 0 -- -- 59
2019-08-14 05:00:00 13.9 8 Sur 13 Sur 0 -- -- 60
2019-08-14 04:00:00 13.8 6 Sur 8 Sudoeste 0 -- -- 60
2019-08-14 03:00:00 13.7 6 Sur 10 Sudoeste 0 -- -- 62
2019-08-14 02:00:00 14.2 6 Sudoeste 9 Sudoeste 0 -- -- 62
2019-08-14 01:00:00 15.6 5 Noroeste 13 Oeste 0 -- -- 58
2019-08-14 00:00:00 16.4 6 Oeste 16 Noroeste 0 -- -- 56
2019-08-13 23:00:00 17.4 8 Noroeste 21 Noroeste 0 -- -- 51
2019-08-13 22:00:00 18.6 7 Noroeste 19 Noroeste 0 -- -- 46
2019-08-13 21:00:00 20.6 11 Noroeste 21 Noroeste 0 -- -- 41
2019-08-13 20:00:00 23 14 Noroeste 25 Norte 0 -- -- 36
2019-08-13 19:00:00 23.5 16 Norte 29 Norte 0 -- -- 34
2019-08-13 18:00:00 24.8 15 Norte 30 Noroeste 0 -- -- 33
2019-08-13 17:00:00 24.6 15 Norte 29 Norte 0 -- -- 35
2019-08-13 16:00:00 24.1 16 Norte 29 Norte 0 -- -- 37
2019-08-13 15:00:00 23.3 13 Noroeste 27 Norte 0 -- -- 37
2019-08-13 14:00:00 21.5 10 Norte 23 Norte 0 -- -- 41
2019-08-13 13:00:00 20.8 12 Noroeste 25 Norte 0 -- -- 43
2019-08-13 12:00:00 19.2 9 Noroeste 21 Oeste 0 -- -- 45
2019-08-13 11:00:00 17.5 10 Noroeste 19 Noroeste 0 -- -- 48
2019-08-13 10:00:00 16.1 11 Noroeste 23 Noroeste 0 -- -- 54
2019-08-13 09:00:00 14.5 10 Noroeste 18 Oeste 0 -- -- 57
2019-08-13 08:00:00 13.5 8 Oeste 18 Noroeste 0 -- -- 60
2019-08-13 07:00:00 13.1 8 Oeste 21 Oeste 0 -- -- 62
2019-08-13 06:00:00 13.1 12 Noroeste 22 Oeste 0 -- -- 64
2019-08-13 05:00:00 12.9 9 Oeste 26 Oeste 0 -- -- 68
2019-08-13 04:00:00 12.8 10 Noroeste 23 Oeste 0 -- -- 69
2019-08-13 03:00:00 12.6 12 Oeste 19 Oeste 0 -- -- 68
2019-08-13 02:00:00 12.5 10 Oeste 21 Oeste 0 -- -- 69
2019-08-13 01:00:00 13.1 10 Oeste 29 Noroeste 0 -- -- 68
2019-08-13 00:00:00 13.8 17 Noroeste 34 Oeste 0 -- -- 66
2019-08-12 23:00:00 14.9 18 Noroeste 37 Noroeste 0 -- -- 61
2019-08-12 22:00:00 16 18 Noroeste 40 Noroeste 0 -- -- 56
2019-08-12 21:00:00 17.7 25 Noroeste 45 Norte 0 -- -- 51
2019-08-12 20:00:00 20.1 26 Noroeste 46 Noroeste 0 -- -- 43
2019-08-12 19:00:00 21.8 31 Noroeste 46 Noroeste 0 -- -- 37
2019-08-12 18:00:00 23.1 27 Noroeste 51 Norte 0 -- -- 36
2019-08-12 17:00:00 23.5 23 Noroeste 37 Noroeste 0 -- -- 35
2019-08-12 16:00:00 23.5 22 Noroeste 42 Noroeste 0 -- -- 35
2019-08-12 15:00:00 22.6 24 Noroeste 40 Norte 0 -- -- 38
2019-08-12 14:00:00 21.9 19 Noroeste 34 Norte 0 -- -- 40
2019-08-12 13:00:00 20.9 20 Noroeste 35 Noroeste 0 -- -- 43
2019-08-12 12:00:00 19.5 19 Noroeste 34 Oeste 0 -- -- 50
2019-08-12 11:00:00 18 21 Noroeste 36 Noroeste 0 -- -- 58
2019-08-12 10:00:00 16.3 20 Noroeste 34 Noroeste 0 -- -- 63
2019-08-12 09:00:00 14.9 16 Noroeste 26 Noroeste 0 -- -- 69
2019-08-12 08:00:00 13.3 12 Noroeste 23 Noroeste 0 -- -- 76
2019-08-12 07:00:00 13.6 7 Noroeste 16 Noroeste 0 -- -- 77
2019-08-12 06:00:00 13.5 9 Noroeste 20 Noroeste 0 -- -- 78
2019-08-12 05:00:00 14 13 Noroeste 27 Noroeste 0 -- -- 77
2019-08-12 04:00:00 14.9 11 Noroeste 22 Noroeste 0 -- -- 74
2019-08-12 03:00:00 15.5 13 Noroeste 24 Noroeste 0 -- -- 70
2019-08-12 02:00:00 16.3 13 Noroeste 22 Noroeste 0 -- -- 66
2019-08-12 01:00:00 16.8 14 Noroeste 24 Noroeste 0 -- -- 65
2019-08-12 00:00:00 17.8 17 Noroeste 31 Noroeste 0 -- -- 62
2019-08-11 23:00:00 19.3 18 Noroeste 31 Noroeste 0 -- -- 59
2019-08-11 22:00:00 21.5 17 Noroeste 30 Noroeste 0 -- -- 51
2019-08-11 21:00:00 23.5 17 Noroeste 27 Norte 0 -- -- 46
2019-08-11 20:00:00 25.4 17 Noroeste 27 Noroeste 0 -- -- 42
2019-08-11 19:00:00 27.4 5 Nordeste 20 Nordeste 0 -- -- 39
2019-08-11 18:00:00 28.3 8 Norte 22 Nordeste 0 -- -- 39
2019-08-11 17:00:00 28.1 9 Norte 22 Norte 0 -- -- 39
2019-08-11 16:00:00 27.5 9 Noroeste 23 Noroeste 0 -- -- 42
2019-08-11 15:00:00 26.3 8 Norte 23 Norte 0 -- -- 46
2019-08-11 14:00:00 24.6 14 Norte 26 Norte 0 -- -- 50
2019-08-11 13:00:00 24.6 15 Norte 25 Noroeste 0 -- -- 50
2019-08-11 12:00:00 22.2 10 Norte 18 Noroeste 0 -- -- 57
2019-08-11 11:00:00 21.7 5 Norte 19 Noroeste 0 -- -- 59
2019-08-11 10:00:00 19.9 15 Noroeste 30 Noroeste 0 -- -- 65
2019-08-11 09:00:00 19 13 Noroeste 22 Noroeste 0 -- -- 68
2019-08-11 08:00:00 16.4 3 Sudoeste 4 Sur 0 -- -- 73
2019-08-11 07:00:00 16 2 Noroeste 5 Noroeste 0 -- -- 73
2019-08-11 06:00:00 16.8 0 Calma 5 Noroeste 0 -- -- 69
2019-08-11 05:00:00 17.6 4 Noroeste 7 Noroeste 0 -- -- 69
2019-08-11 04:00:00 18.7 4 Noroeste 6 Noroeste 0 -- -- 64
2019-08-11 03:00:00 19.9 0 Calma 5 Noroeste 0 -- -- 57
2019-08-11 02:00:00 21 5 Sur 8 Sur 0 -- -- 55
2019-08-11 01:00:00 21.6 4 Sudoeste 8 Sur 0 -- -- 53
2019-08-11 00:00:00 23 4 Sudoeste 8 Norte 0 -- -- 50
2019-08-10 23:00:00 24.5 5 Norte 12 Norte 0 -- -- 47
2019-08-10 22:00:00 25.1 4 Nordeste 12 Nordeste 0 -- -- 45
2019-08-10 21:00:00 27.1 9 Nordeste 21 Nordeste 0 -- -- 41
2019-08-10 20:00:00 28.6 12 Nordeste 23 Nordeste 0 -- -- 39
2019-08-10 19:00:00 29 11 Nordeste 26 Nordeste 0 -- -- 38
2019-08-10 18:00:00 28.5 12 Nordeste 27 Nordeste 0 -- -- 39
2019-08-10 17:00:00 28.7 17 Nordeste 29 Nordeste 0 -- -- 38
2019-08-10 16:00:00 29.1 10 Nordeste 25 Este 0 -- -- 38
2019-08-10 15:00:00 29 15 Este 28 Este 0 -- -- 39
2019-08-10 14:00:00 28.6 12 Nordeste 25 Norte 0 -- -- 40
2019-08-10 13:00:00 27.8 5 Noroeste 16 Norte 0 -- -- 43
2019-08-10 12:00:00 26.3 7 Norte 15 Noroeste 0 -- -- 46
2019-08-10 11:00:00 24.5 6 Noroeste 10 Norte 0 -- -- 49
2019-08-10 10:00:00 22.7 4 Noroeste 18 Oeste 0 -- -- 53
2019-08-10 09:00:00 20.9 12 Oeste 23 Oeste 0 -- -- 59
2019-08-10 08:00:00 19 9 Sudoeste 17 Oeste 0 -- -- 65
2019-08-10 07:00:00 19.1 12 Oeste 24 Oeste 0 -- -- 65
2019-08-10 06:00:00 19.3 10 Oeste 18 Oeste 0 -- -- 66
2019-08-10 05:00:00 19.7 9 Oeste 17 Oeste 0 -- -- 64
2019-08-10 04:00:00 18.8 3 Noroeste 10 Oeste 0 -- -- 64
2019-08-10 03:00:00 19.9 2 Sudoeste 4 Norte 0 -- -- 60
2019-08-10 02:00:00 21.3 0 Calma 26 Oeste 0 -- -- 55
2019-08-10 01:00:00 22.2 14 Oeste 30 Oeste 0 -- -- 54
2019-08-10 00:00:00 23.4 17 Oeste 34 Oeste 0 -- -- 60
2019-08-09 23:00:00 26.8 22 Oeste 40 Sudoeste 0 -- -- 53
2019-08-09 22:00:00 29.5 13 Oeste 27 Oeste 0 -- -- 37
2019-08-09 21:00:00 31.4 19 Oeste 42 Oeste 0 -- -- 33
2019-08-09 20:00:00 33.2 24 Sudoeste 41 Oeste 0 -- -- 30
2019-08-09 19:00:00 34.5 22 Oeste 41 Oeste 0 -- -- 27
2019-08-09 18:00:00 34.6 24 Oeste 45 Oeste 0 -- -- 28
2019-08-09 17:00:00 34.8 21 Oeste 38 Sudoeste 0 -- -- 27
2019-08-09 16:00:00 35 22 Oeste 46 Oeste 0 -- -- 25
2019-08-09 15:00:00 34.8 22 Sudoeste 41 Oeste 0 -- -- 25
2019-08-09 14:00:00 33.9 16 Oeste 33 Oeste 0 -- -- 26
2019-08-09 13:00:00 32.8 19 Sudoeste 43 Oeste 0 -- -- 27
2019-08-09 12:00:00 31 18 Sudoeste 33 Sudoeste 0 -- -- 32
2019-08-09 11:00:00 29.9 14 Sudoeste 28 Sudoeste 0 -- -- 36
2019-08-09 10:00:00 28.2 14 Sudoeste 28 Oeste 0 -- -- 39
2019-08-09 09:00:00 26.2 10 Sudoeste 15 Sudoeste 0 -- -- 41
2019-08-09 08:00:00 22.6 12 Sur 17 Sur 0 -- -- 49
2019-08-09 07:00:00 22.3 12 Sur 19 Sudoeste 0 -- -- 49
2019-08-09 06:00:00 22.6 10 Sudoeste 15 Sudoeste 0 -- -- 48
2019-08-09 05:00:00 22.9 7 Sur 13 Sur 0 -- -- 47
2019-08-09 04:00:00 23.7 8 Sur 13 Sur 0 -- -- 45
2019-08-09 03:00:00 23.5 9 Sur 13 Sur 0 -- -- 45
2019-08-09 02:00:00 24 6 Sur 10 Sur 0 -- -- 44
2019-08-09 01:00:00 24.7 5 Sur 15 Sur 0 -- -- 42
2019-08-09 00:00:00 28.3 13 Sudoeste 28 Oeste 0 -- -- 36
2019-08-08 23:00:00 29.1 13 Sudoeste 20 Sudoeste 0 -- -- 36
2019-08-08 22:00:00 28.5 8 Este 15 Este 0 -- -- 38
2019-08-08 21:00:00 30.6 11 Este 25 Este 0 -- -- 35
2019-08-08 20:00:00 32.4 16 Este 27 Nordeste 0 -- -- 32
2019-08-08 19:00:00 33.1 16 Nordeste 27 Nordeste 0 -- -- 31
2019-08-08 18:00:00 34 12 Sur 31 Sur 0 -- -- 30
2019-08-08 17:00:00 33.6 10 Noroeste 27 Noroeste 0 -- -- 29
2019-08-08 16:00:00 33.2 5 Sur 29 Sudeste 0 -- -- 30
2019-08-08 15:00:00 32.7 8 Sudoeste 24 Oeste 0 -- -- 30
2019-08-08 14:00:00 31 6 Sur 18 Sudoeste 0 -- -- 33
2019-08-08 13:00:00 29.7 8 Oeste 22 Oeste 0 -- -- 35
2019-08-08 12:00:00 28.7 8 Oeste 21 Oeste 0 -- -- 39
2019-08-08 11:00:00 26.7 10 Oeste 23 Oeste 0 -- -- 40
2019-08-08 10:00:00 24.7 13 Oeste 26 Oeste 0 -- -- 45
2019-08-08 09:00:00 22.7 9 Oeste 16 Oeste 0 -- -- 52
2019-08-08 08:00:00 20.1 6 Sudoeste 9 Oeste 0 -- -- 59
2019-08-08 07:00:00 19.4 5 Sudoeste 12 Sudoeste 0 -- -- 60
2019-08-08 06:00:00 20.2 9 Sudoeste 19 Sudoeste 0 -- -- 57
2019-08-08 05:00:00 21.3 11 Sudoeste 18 Sudoeste 0 -- -- 53
2019-08-08 04:00:00 21.9 12 Sudoeste 21 Oeste 0 -- -- 50
2019-08-08 03:00:00 22.9 15 Sudoeste 23 Oeste 0 -- -- 46
2019-08-08 02:00:00 21.4 4 Sudoeste 10 Sudoeste 0 -- -- 49
2019-08-08 01:00:00 22.4 4 Sur 9 Sur 0 -- -- 48
2019-08-08 00:00:00 24 5 Oeste 12 Oeste 0 -- -- 48
2019-08-07 23:00:00 24.5 4 Sur 6 Sur 0 -- -- 40
2019-08-07 22:00:00 25.7 3 Sudoeste 6 Sudoeste 0 -- -- 38
2019-08-07 21:00:00 27 5 Oeste 17 Oeste 0 -- -- 34
2019-08-07 20:00:00 28 11 Oeste 22 Oeste 0 -- -- 33
2019-08-07 19:00:00 28.6 17 Oeste 27 Sudoeste 0 -- -- 32
2019-08-07 18:00:00 29.1 15 Oeste 32 Sudoeste 0 -- -- 31
2019-08-07 17:00:00 29.7 13 Oeste 24 Oeste 0 -- -- 31
2019-08-07 16:00:00 29.5 3 Sudoeste 19 Noroeste 0 -- -- 34
2019-08-07 15:00:00 28.2 5 Nordeste 17 Noroeste 0 -- -- 41
2019-08-07 14:00:00 27.4 6 Norte 17 Norte 0 -- -- 44
2019-08-07 13:00:00 27.2 8 Norte 18 Norte 0 -- -- 41
2019-08-07 12:00:00 26.8 7 Norte 16 Norte 0 -- -- 44
2019-08-07 11:00:00 25.1 5 Oeste 10 Noroeste 0 -- -- 48
2019-08-07 10:00:00 22.7 6 Norte 11 Norte 0 -- -- 59
2019-08-07 09:00:00 20.1 5 Noroeste 14 Noroeste 0 -- -- 70
2019-08-07 08:00:00 18.9 3 Noroeste 8 Norte 0 -- -- 75
2019-08-07 07:00:00 18.7 4 Norte 10 Norte 0 -- -- 75
2019-08-07 06:00:00 19 4 Norte 9 Norte 0 -- -- 75
2019-08-07 05:00:00 19.5 5 Noroeste 12 Norte 0 -- -- 72
2019-08-07 04:00:00 20.5 9 Noroeste 16 Noroeste -- -- -- 68
2019-08-07 03:00:00 21.6 11 Noroeste 16 Noroeste 0 -- -- 66
2019-08-07 02:00:00 24.1 6 Noroeste 27 Noroeste 0 -- -- 49
2019-08-07 01:00:00 26.5 13 Sudoeste 19 Oeste 0 -- -- 30
2019-08-07 00:00:00 25.3 9 Sur 14 Sur 0 -- -- 55
2019-08-06 23:00:00 26 5 Sur 7 Sur 0 -- -- 47
2019-08-06 22:00:00 27.9 3 Sudeste 18 Este 0 -- -- 42
2019-08-06 21:00:00 30.2 13 Este 35 Este 0 -- -- 37
2019-08-06 20:00:00 31.4 20 Este 31 Este 0 -- -- 33
2019-08-06 19:00:00 32.4 18 Este 34 Este 0 -- -- 30
2019-08-06 18:00:00 33.2 20 Este 33 Este 0 -- -- 31
2019-08-06 17:00:00 33.2 14 Nordeste 27 Este 0 -- -- 33
2019-08-06 16:00:00 34.1 10 Norte 25 Nordeste 0 -- -- 31
2019-08-06 15:00:00 32.6 13 Nordeste 35 Norte 0 -- -- 34
2019-08-06 14:00:00 32.8 6 Norte 19 Noroeste 0 -- -- 29
2019-08-06 13:00:00 30.5 10 Norte 17 Norte 0 -- -- 38
2019-08-06 12:00:00 27.7 4 Este 13 Nordeste 0 -- -- 45
2019-08-06 11:00:00 25 6 Noroeste 15 Noroeste 0 -- -- 55
2019-08-06 10:00:00 22.8 10 Noroeste 17 Norte 0 -- -- 62
2019-08-06 09:00:00 20.6 2 Noroeste 9 Noroeste 0 -- -- 69
2019-08-06 08:00:00 17.9 0 Calma 6 Sur 0 -- -- 78
2019-08-06 07:00:00 17.7 0 Calma 6 Noroeste 0 -- -- 76
2019-08-06 06:00:00 18.7 2 Oeste 9 Noroeste 0 -- -- 76
2019-08-06 05:00:00 19.6 5 Norte 13 Oeste 0 -- -- 73
2019-08-06 04:00:00 21.2 6 Noroeste 15 Oeste 0 -- -- 66
2019-08-06 03:00:00 22.7 9 Noroeste 28 Sudoeste 0 -- -- 59
2019-08-06 02:00:00 25.7 18 Sur 28 Sur 0 -- -- 51
2019-08-06 01:00:00 25.1 9 Sudoeste 22 Sudoeste 0 -- -- 54
2019-08-06 00:00:00 24.9 4 Sur 11 Sur 0 -- -- 55
2019-08-05 23:00:00 26.3 3 Sudoeste 5 Sudeste 0 -- -- 52
2019-08-05 22:00:00 27.9 0 Calma 13 Nordeste 0 -- -- 49
2019-08-05 21:00:00 29.7 12 Nordeste 26 Nordeste 0 -- -- 40
2019-08-05 20:00:00 31.4 18 Nordeste 30 Nordeste 0 -- -- 38
2019-08-05 19:00:00 32.4 18 Nordeste 32 Este 0 -- -- 37
2019-08-05 18:00:00 33.1 15 Este 33 Nordeste 0 -- -- 36
2019-08-05 17:00:00 33.6 17 Este 33 Este 0 -- -- 30
2019-08-05 16:00:00 33.2 15 Nordeste 30 Este 0 -- -- 27
2019-08-05 15:00:00 31.5 15 Este 31 Este 0 -- -- 37
2019-08-05 14:00:00 30.9 16 Este 26 Este 0 -- -- 42
2019-08-05 13:00:00 29.2 8 Nordeste 19 Nordeste 0 -- -- 45
2019-08-05 12:00:00 26.9 6 Nordeste 14 Este 0 -- -- 52
2019-08-05 11:00:00 24.3 4 Sudeste 9 Sur 0 -- -- 59
2019-08-05 10:00:00 22 4 Noroeste 8 Noroeste 0 -- -- 66
2019-08-05 09:00:00 20.1 3 Noroeste 5 Noroeste 0 -- -- 73
2019-08-05 08:00:00 17.4 3 Sur 5 Sudoeste 0 -- -- 81
2019-08-05 07:00:00 17.5 0 Calma 6 Noroeste 0 -- -- 80
2019-08-05 06:00:00 18 3 Noroeste 13 Oeste 0 -- -- 79
2019-08-05 05:00:00 18.6 5 Noroeste 15 Noroeste 0 -- -- 77
2019-08-05 04:00:00 19.9 8 Noroeste 16 Noroeste 0 -- -- 73
2019-08-05 03:00:00 21.7 6 Noroeste 21 Noroeste 0 -- -- 67
2019-08-05 02:00:00 23.4 6 Oeste 13 Oeste 0 -- -- 62
2019-08-05 01:00:00 23.9 6 Noroeste 13 Norte 0 -- -- 60
2019-08-05 00:00:00 24.6 6 Sur 14 Sur 0 -- -- 58
2019-08-04 23:00:00 26.2 2 Sur 10 Este 0 -- -- 53
2019-08-04 22:00:00 27.8 6 Este 16 Nordeste 0 -- -- 50
2019-08-04 21:00:00 29.8 10 Este 31 Este 0 -- -- 47
2019-08-04 20:00:00 31.7 23 Nordeste 33 Nordeste 0 -- -- 35
2019-08-04 19:00:00 32.6 18 Nordeste 31 Nordeste 0 -- -- 31
2019-08-04 18:00:00 33 19 Nordeste 31 Nordeste 0 -- -- 32
2019-08-04 17:00:00 33.6 12 Este 28 Este 0 -- -- 31
2019-08-04 16:00:00 33 19 Este 32 Este 0 -- -- 35
2019-08-04 15:00:00 32.5 17 Este 33 Este 0 -- -- 37
2019-08-04 14:00:00 32 9 Nordeste 22 Norte 0 -- -- 38
2019-08-04 13:00:00 30.5 8 Noroeste 19 Noroeste 0 -- -- 42
2019-08-04 12:00:00 27.9 5 Noroeste 11 Norte 0 -- -- 50
2019-08-04 11:00:00 25.2 5 Nordeste 12 Norte 0 -- -- 59
2019-08-04 10:00:00 23.4 8 Noroeste 14 Norte 0 -- -- 65
2019-08-04 09:00:00 21.6 4 Norte 8 Norte 0 -- -- 71
2019-08-04 08:00:00 19.3 3 Noroeste 5 Noroeste 0 -- -- 81
2019-08-04 07:00:00 18.5 0 Calma 6 Norte 0 -- -- 81
2019-08-04 06:00:00 18.9 3 Norte 9 Norte 0 -- -- 81
2019-08-04 05:00:00 20.2 6 Norte 9 Norte 0 -- -- 75
2019-08-04 04:00:00 21 3 Sur 7 Noroeste 0 -- -- 68
2019-08-04 03:00:00 21.6 4 Sur 11 Oeste 0 -- -- 69
2019-08-04 02:00:00 23.1 3 Nordeste 15 Norte 0 -- -- 59
2019-08-04 01:00:00 24.8 4 Norte 13 Sudoeste 0 -- -- 52
2019-08-04 00:00:00 24.8 2 Noroeste 9 Sudeste 0 -- -- 53
2019-08-03 23:00:00 25.5 4 Sur 9 Sudeste 0 -- -- 53
2019-08-03 22:00:00 27.2 4 Sudeste 13 Sudeste 0 -- -- 49
2019-08-03 21:00:00 29.5 7 Este 28 Nordeste 0 -- -- 45
2019-08-03 20:00:00 31.2 20 Nordeste 31 Nordeste 0 -- -- 41
2019-08-03 19:00:00 32.4 19 Nordeste 32 Nordeste 0 -- -- 36
2019-08-03 18:00:00 33.3 15 Nordeste 35 Nordeste 0 -- -- 33
2019-08-03 17:00:00 33.1 16 Nordeste 33 Este 0 -- -- 33
2019-08-03 16:00:00 32.6 10 Nordeste 27 Este 0 -- -- 33
2019-08-03 15:00:00 32 12 Este 27 Este 0 -- -- 33
2019-08-03 14:00:00 31.9 12 Este 24 Este 0 -- -- 31
2019-08-03 13:00:00 29.7 10 Nordeste 19 Este 0 -- -- 32
2019-08-03 12:00:00 28.6 8 Este 15 Nordeste 0 -- -- 33
2019-08-03 11:00:00 26.4 4 Nordeste 11 Nordeste 0 -- -- 35
2019-08-03 10:00:00 23.9 3 Norte 8 Noroeste 0 -- -- 41
2019-08-03 09:00:00 21.8 3 Noroeste 5 Noroeste 0 -- -- 45
2019-08-03 08:00:00 18.1 4 Sur 10 Sudoeste 0 -- -- 52
2019-08-03 07:00:00 16.7 4 Sur 6 Sur 0 -- -- 56
2019-08-03 06:00:00 17.2 4 Sur 6 Sur 0 -- -- 55
2019-08-03 05:00:00 18.6 3 Sur 10 Sur 0 -- -- 52
2019-08-03 04:00:00 18.9 6 Sur 9 Sur 0 -- -- 52
2019-08-03 03:00:00 19.8 6 Sur 9 Sur 0 -- -- 50
2019-08-03 02:00:00 20.5 7 Sur 10 Sudoeste 0 -- -- 49
2019-08-03 01:00:00 21.7 4 Sur 6 Sudoeste 0 -- -- 47
2019-08-03 00:00:00 22.5 4 Sudoeste 8 Sudoeste 0 -- -- 49
2019-08-02 23:00:00 24.1 4 Sur 9 Nordeste 0 -- -- 45
2019-08-02 22:00:00 25.9 8 Nordeste 10 Nordeste 0 -- -- 41
2019-08-02 21:00:00 27.9 6 Nordeste 21 Nordeste 0 -- -- 38
2019-08-02 20:00:00 29.2 13 Nordeste 25 Nordeste 0 -- -- 37
2019-08-02 19:00:00 30 12 Nordeste 26 Norte 0 -- -- 35
2019-08-02 18:00:00 30.3 10 Norte 27 Nordeste 0 -- -- 36
2019-08-02 17:00:00 30.7 12 Norte 31 Nordeste 0 -- -- 36
2019-08-02 16:00:00 30.3 12 Norte 27 Nordeste 0 -- -- 39
2019-08-02 15:00:00 29.6 12 Norte 21 Norte 0 -- -- 40
2019-08-02 14:00:00 28 5 Norte 14 Norte 0 -- -- 46
2019-08-02 13:00:00 26.2 5 Noroeste 13 Norte 0 -- -- 50
2019-08-02 12:00:00 24.4 6 Norte 16 Norte 0 -- -- 54
2019-08-02 11:00:00 22.6 5 Noroeste 13 Noroeste 0 -- -- 62
2019-08-02 10:00:00 20.6 6 Noroeste 14 Noroeste 0 -- -- 70
2019-08-02 09:00:00 18.7 8 Noroeste 13 Oeste 0 -- -- 77
2019-08-02 08:00:00 16.8 5 Noroeste 9 Oeste 0 -- -- 85
2019-08-02 07:00:00 16.4 5 Oeste 13 Noroeste 0 -- -- 86
2019-08-02 06:00:00 16.5 6 Noroeste 12 Noroeste 0 -- -- 86
2019-08-02 05:00:00 17 8 Oeste 15 Noroeste 0 -- -- 85
2019-08-02 04:00:00 17.4 8 Oeste 17 Oeste 0 -- -- 83
2019-08-02 03:00:00 18.1 9 Oeste 19 Noroeste 0 -- -- 81
2019-08-02 02:00:00 18.8 13 Noroeste 26 Noroeste 0 -- -- 78
2019-08-02 01:00:00 20.2 13 Noroeste 27 Noroeste 0 -- -- 74
2019-08-02 00:00:00 22.4 17 Noroeste 28 Noroeste 0 -- -- 66
2019-08-01 23:00:00 24.2 12 Noroeste 21 Noroeste 0 -- -- 51
2019-08-01 22:00:00 25.8 6 Nordeste 10 Nordeste 0 -- -- 44
2019-08-01 21:00:00 27.9 6 Este 22 Nordeste 0 -- -- 38
2019-08-01 20:00:00 29.5 11 Este 27 Este 0 -- -- 36
2019-08-01 19:00:00 29.4 16 Este 30 Este 0 -- -- 38
2019-08-01 18:00:00 30.6 15 Nordeste 29 Nordeste 0 -- -- 38
2019-08-01 17:00:00 30.3 12 Este 28 Norte 0 -- -- 40
2019-08-01 16:00:00 29.7 10 Norte 26 Nordeste 0 -- -- 42
2019-08-01 15:00:00 28.8 12 Norte 27 Nordeste 0 -- -- 44
2019-08-01 14:00:00 27.1 12 Norte 24 Norte 0 -- -- 51
2019-08-01 13:00:00 26.4 12 Norte 30 Nordeste 0 -- -- 54
2019-08-01 12:00:00 25.2 10 Norte 18 Norte 0 -- -- 56
2019-08-01 11:00:00 23.8 5 Este 13 Nordeste 0 -- -- 52
2019-08-01 10:00:00 21.4 3 Noroeste 10 Noroeste 0 -- -- 65
2019-08-01 09:00:00 18.8 3 Oeste 6 Oeste 0 -- -- 82
2019-08-01 08:00:00 17.7 3 Sur 8 Noroeste 0 -- -- 90
2019-08-01 07:00:00 17.2 4 Norte 11 Oeste 0 -- -- 96
2019-08-01 06:00:00 17.2 5 Noroeste 16 Noroeste 0 -- -- 96
2019-08-01 05:00:00 17.3 5 Noroeste 13 Noroeste 0 -- -- 93
2019-08-01 04:00:00 17.6 5 Noroeste 11 Noroeste 0 -- -- 82
2019-08-01 03:00:00 18.9 0 Calma 3 Norte 0 -- -- 75
2019-08-01 02:00:00 19.9 0 Calma 5 Este 0 -- -- 73
2019-08-01 01:00:00 21.1 4 Sudeste 9 Este 0 -- -- 71
2019-08-01 00:00:00 21.7 6 Este 12 Sudeste 0 -- -- 69
2019-07-31 23:00:00 22.9 5 Sudeste 15 Este 0 -- -- 64
2019-07-31 22:00:00 24.2 10 Este 26 Este 0 -- -- 60
2019-07-31 21:00:00 25.6 17 Este 28 Este 0 -- -- 56
2019-07-31 20:00:00 27.4 17 Este 28 Nordeste 0 -- -- 49
2019-07-31 19:00:00 27.5 16 Nordeste 33 Este 0 -- -- 46
2019-07-31 18:00:00 27.7 16 Nordeste 31 Este 0 -- -- 41
2019-07-31 17:00:00 27.5 15 Este 28 Este 0 -- -- 39
2019-07-31 16:00:00 27 13 Este 29 Este 0 -- -- 39
2019-07-31 15:00:00 25.9 12 Este 28 Este 0 -- -- 38
2019-07-31 14:00:00 24.9 13 Este 24 Este 0 -- -- 39
2019-07-31 13:00:00 22.9 10 Nordeste 23 Este 0 -- -- 42
2019-07-31 12:00:00 21.7 12 Este 22 Este 0 -- -- 43
2019-07-31 11:00:00 19.1 7 Norte 15 Nordeste 0 -- -- 48
2019-07-31 10:00:00 17.2 6 Norte 13 Norte 0 -- -- 53
2019-07-31 09:00:00 15.1 7 Noroeste 12 Noroeste 0 -- -- 59
2019-07-31 08:00:00 13.2 7 Noroeste 11 Oeste 0 -- -- 66
2019-07-31 07:00:00 12.5 5 Oeste 12 Oeste 0 -- -- 69
2019-07-31 06:00:00 12.6 5 Noroeste 11 Noroeste 0 -- -- 68
2019-07-31 05:00:00 13 6 Noroeste 12 Noroeste 0 -- -- 67
2019-07-31 04:00:00 13.6 6 Oeste 13 Oeste 0 -- -- 64
2019-07-31 03:00:00 13.7 6 Oeste 15 Noroeste 0 -- -- 63
2019-07-31 02:00:00 14.2 8 Noroeste 19 Noroeste 0 -- -- 61
2019-07-31 01:00:00 14.9 10 Noroeste 21 Noroeste 0 -- -- 58
2019-07-31 00:00:00 15.9 12 Noroeste 22 Noroeste 0 -- -- 55
2019-07-30 23:00:00 17.4 12 Noroeste 23 Noroeste 0 -- -- 51
2019-07-30 22:00:00 18.9 14 Noroeste 26 Noroeste 0 -- -- 49
2019-07-30 21:00:00 20.9 17 Noroeste 28 Norte 0 -- -- 44
2019-07-30 20:00:00 22.6 17 Noroeste 31 Norte 0 -- -- 40
2019-07-30 19:00:00 24 17 Norte 28 Norte 0 -- -- 38
2019-07-30 18:00:00 24.6 14 Norte 31 Norte 0 -- -- 38
2019-07-30 17:00:00 25.1 16 Noroeste 34 Norte 0 -- -- 38
2019-07-30 16:00:00 24.8 14 Norte 28 Noroeste 0 -- -- 39
2019-07-30 15:00:00 23.7 14 Norte 27 Norte 0 -- -- 41
2019-07-30 14:00:00 22.6 12 Norte 24 Noroeste 0 -- -- 44
2019-07-30 13:00:00 22 13 Noroeste 27 Noroeste 0 -- -- 47
2019-07-30 12:00:00 20.2 17 Noroeste 31 Oeste 0 -- -- 53
2019-07-30 11:00:00 18.5 17 Noroeste 33 Noroeste 0 -- -- 60
2019-07-30 10:00:00 17.1 17 Noroeste 32 Noroeste 0 -- -- 66
2019-07-30 09:00:00 15.5 18 Noroeste 31 Noroeste 0 -- -- 72
2019-07-30 08:00:00 14.2 14 Oeste 25 Noroeste 0 -- -- 79
2019-07-30 07:00:00 13.7 12 Oeste 23 Noroeste 0 -- -- 81
2019-07-30 06:00:00 14 13 Oeste 32 Oeste 0 -- -- 81
2019-07-30 05:00:00 14.5 13 Noroeste 29 Oeste 0 -- -- 79
2019-07-30 04:00:00 15 15 Noroeste 32 Oeste 0 -- -- 77
2019-07-30 03:00:00 15.6 14 Noroeste 30 Noroeste 0 -- -- 76
2019-07-30 02:00:00 16.9 14 Noroeste 28 Oeste 0 -- -- 71
2019-07-30 01:00:00 18.5 15 Noroeste 36 Oeste 0 -- -- 67
2019-07-30 00:00:00 20.9 19 Noroeste 33 Noroeste 0 -- -- 59
2019-07-29 23:00:00 25.2 11 Sudeste 15 Sudeste 0 -- -- 49
2019-07-29 22:00:00 25.9 7 Este 11 Este 0 -- -- 36
2019-07-29 21:00:00 28.3 9 Este 23 Este 0 -- -- 32
2019-07-29 20:00:00 29.8 14 Este 29 Este 0 -- -- 29
2019-07-29 19:00:00 31.1 15 Este 26 Este 0 -- -- 27
2019-07-29 18:00:00 31.3 10 Este 22 Sudeste 0 -- -- 28
2019-07-29 17:00:00 30.9 10 Este 25 Este 0 -- -- 28
2019-07-29 16:00:00 29.4 10 Nordeste 23 Nordeste 0 -- -- 30
2019-07-29 15:00:00 29.7 12 Nordeste 27 Sur 0 -- -- 29
2019-07-29 14:00:00 30.7 14 Sudoeste 36 Sudoeste 0 -- -- 29
2019-07-29 13:00:00 29.2 8 Noroeste 19 Nordeste 0 -- -- 31
2019-07-29 12:00:00 27.7 6 Noroeste 15 Noroeste 0 -- -- 33
2019-07-29 11:00:00 25.6 5 Nordeste 9 Norte 0 -- -- 40
2019-07-29 10:00:00 23.2 3 Nordeste 5 Nordeste 0 -- -- 44
2019-07-29 09:00:00 19.3 3 Nordeste 6 Nordeste 0 -- -- 55
2019-07-29 08:00:00 17.6 0 Calma 8 Sur 0 -- -- 62
2019-07-29 07:00:00 15.4 5 Sudeste 11 Sudeste 0 -- -- 65
2019-07-29 06:00:00 14 0 Calma 9 Sur 0 -- -- 70
2019-07-29 05:00:00 14.3 6 Sur 13 Sur 0 -- -- 70
2019-07-29 04:00:00 14.8 7 Sur 9 Sur 0 -- -- 68
2019-07-29 03:00:00 15 6 Sur 8 Sur 0 -- -- 67
2019-07-29 02:00:00 15.5 7 Sur 9 Sur 0 -- -- 65
2019-07-29 01:00:00 16.6 4 Sur 6 Sur 0 -- -- 61
2019-07-29 00:00:00 17.8 3 Sudoeste 8 Norte 0 -- -- 56
2019-07-28 23:00:00 19 6 Norte 12 Nordeste 0 -- -- 53
2019-07-28 22:00:00 20.7 6 Nordeste 13 Noroeste 0 -- -- 48
2019-07-28 21:00:00 23.1 9 Noroeste 18 Norte 0 -- -- 41
2019-07-28 20:00:00 24.6 11 Norte 21 Norte 0 -- -- 38
2019-07-28 19:00:00 25.1 14 Norte 27 Norte 0 -- -- 37
2019-07-28 18:00:00 25.5 13 Norte 24 Norte 0 -- -- 36
2019-07-28 17:00:00 25.7 10 Noroeste 24 Norte 0 -- -- 37
2019-07-28 16:00:00 24.4 13 Norte 24 Norte 0 -- -- 39
2019-07-28 15:00:00 23.4 10 Norte 27 Norte 0 -- -- 41
2019-07-28 14:00:00 22.2 14 Oeste 31 Oeste 0 -- -- 43
2019-07-28 13:00:00 21.1 13 Noroeste 31 Noroeste 0 -- -- 47
2019-07-28 12:00:00 19.5 18 Noroeste 37 Noroeste 0 -- -- 52
2019-07-28 11:00:00 17.7 25 Noroeste 39 Noroeste 0 -- -- 58
2019-07-28 10:00:00 16.8 22 Noroeste 37 Noroeste 0 -- -- 58
2019-07-28 09:00:00 15.1 17 Noroeste 30 Oeste 0 -- -- 68
2019-07-28 08:00:00 13.4 12 Oeste 21 Oeste 0 -- -- 73
2019-07-28 07:00:00 12.3 7 Oeste 24 Oeste 0 -- -- 78
2019-07-28 06:00:00 12.6 12 Oeste 25 Oeste 0 -- -- 78
2019-07-28 05:00:00 12.9 17 Noroeste 39 Noroeste 0 -- -- 76
2019-07-28 04:00:00 13.3 22 Noroeste 42 Noroeste 0 -- -- 75
2019-07-28 03:00:00 13.5 19 Oeste 31 Sudoeste 0 -- -- 76
2019-07-28 02:00:00 13.7 15 Oeste 31 Noroeste 0 -- -- 78
2019-07-28 01:00:00 14 15 Oeste 31 Noroeste 0 -- -- 76
2019-07-28 00:00:00 14.5 15 Noroeste 31 Oeste 0 -- -- 76
2019-07-27 23:00:00 15.1 18 Noroeste 44 Noroeste 0 -- -- 74
2019-07-26 12:00:00 22.8 3 Sudeste 15 Norte 0 -- -- 68
2019-07-26 11:00:00 21.6 8 Oeste 18 Oeste 0 -- -- 73
2019-07-26 10:00:00 20.5 7 Noroeste 21 Oeste 0 -- -- 81
2019-07-26 09:00:00 20 12 Noroeste 21 Noroeste 0 -- -- 84
2019-07-26 08:00:00 18.7 8 Noroeste 18 Noroeste 0 -- -- 89
2019-07-26 07:00:00 19.5 10 Noroeste 24 Noroeste 0.6 -- -- 84
2019-07-26 06:00:00 23 10 Noroeste 18 Noroeste 0 -- -- 56
2019-07-26 05:00:00 23.7 11 Nordeste 42 Sur 0 -- -- 44
2019-07-26 04:00:00 24.5 21 Sur 40 Sudoeste 0 -- -- 42
2019-07-26 03:00:00 25.2 19 Sudoeste 32 Sur 0 -- -- 41
2019-07-26 02:00:00 24.9 15 Sur 32 Sur 0 -- -- 46
2019-07-26 01:00:00 25.7 19 Sudoeste 34 Sur 0 -- -- 45
2019-07-26 00:00:00 25.3 17 Sur 27 Sur 0 -- -- 50